PWSweather.com
Personal Weather Stations
Station Observations
ME1989
Sicily, Barcellona Pozzo Di GottoIT

SicilyBarcellona Pozzo Di GottoIT

Lat: 38.1487398, Lon: 15.2113962

Elevation: 131

Station Type: Peet Bros

Latest ConditionsUpdated 9:00:00 AM GMT+01:01 Sunday, May 1, 2016
Currently Today's Max Today's Min Today's Average
Temperature 63.9°F17.7°C 67.7°F19.8°C 63.9°F17.7°C 65.4°F18.6°C
Dew Point 60.3°F15.7°C 60.7°F15.9°C 52.4°F11.3°C 57.5°F14.2°C
Winds 2.3 mph N3.7 kmh N 9.2 mph WNW14.8 kmh WNW - 3.0 mph 4.8 kmh
Wind Gusts 2.3 mph3.7 kmh 13.8 mph22.2 kmh - -
Humidity 88% 88% 59% 76%
Pressure 29.94 in1013.9 mb 29.95 in1014.2 mb 29.88 in1011.9 mb -
Hour Temp Dew Point Humidity Winds Wind Gusts Pressure Precip Precip Rate Daily Precip Total
09:00 AM 63.9°F17.7°C 60.3°F15.7°C 88% 2.3 mph N3.7 kmh N 2.3 mph3.7 kmh 29.94 in1013.9 mb - 0.00 in0.0 mm 0.00 in0.0 mm
08:50 AM 64.4°F18.0°C 60.7°F15.9°C 88% 2.3 mph NNW3.7 kmh NNW 5.8 mph9.3 kmh 29.94 in1013.9 mb - 0.00 in0.0 mm 0.00 in0.0 mm
08:40 AM 64.2°F17.9°C 60.6°F15.9°C 88% 4.6 mph N7.4 kmh N 5.8 mph9.3 kmh 29.94 in1013.9 mb - 0.00 in0.0 mm 0.00 in0.0 mm
08:30 AM 64.0°F17.8°C 60.1°F15.6°C 87% 3.5 mph N5.6 kmh N 3.5 mph5.6 kmh 29.95 in1014.2 mb - 0.00 in0.0 mm 0.00 in0.0 mm
08:20 AM 64.3°F17.9°C 60.3°F15.7°C 87% 3.5 mph NW5.6 kmh NW 4.6 mph7.4 kmh 29.94 in1013.9 mb - 0.00 in0.0 mm 0.00 in0.0 mm
08:10 AM 64.5°F18.1°C 60.2°F15.7°C 86% 3.5 mph NW5.6 kmh NW 4.6 mph7.4 kmh 29.93 in1013.5 mb - 0.00 in0.0 mm 0.00 in0.0 mm
08:00 AM 64.4°F18.0°C 59.5°F15.3°C 84% 2.3 mph NE3.7 kmh NE 2.3 mph3.7 kmh 29.92 in1013.2 mb - 0.00 in0.0 mm 0.00 in0.0 mm
07:50 AM 64.6°F18.1°C 59.7°F15.4°C 84% 1.2 mph 1.9 kmh 1.2 mph1.9 kmh 29.93 in1013.5 mb - 0.00 in0.0 mm 0.00 in0.0 mm
07:40 AM 64.4°F18.0°C 59.1°F15.1°C 83% Calm Calm 1.2 mph1.9 kmh 29.93 in1013.5 mb - 0.00 in0.0 mm 0.00 in0.0 mm
07:30 AM 64.3°F17.9°C 59.0°F15.0°C 83% 3.5 mph SE5.6 kmh SE 4.6 mph7.4 kmh 29.92 in1013.2 mb - 0.00 in0.0 mm 0.00 in0.0 mm
07:20 AM 64.6°F18.1°C 59.3°F15.2°C 83% Calm Calm 4.6 mph7.4 kmh 29.93 in1013.5 mb - 0.00 in0.0 mm 0.00 in0.0 mm
07:10 AM 64.5°F18.1°C 59.2°F15.1°C 83% 3.5 mph SE5.6 kmh SE 6.9 mph11.1 kmh 29.93 in1013.5 mb - 0.00 in0.0 mm 0.00 in0.0 mm
07:00 AM 64.7°F18.2°C 59.1°F15.1°C 82% Calm Calm -- 29.93 in1013.5 mb - 0.00 in0.0 mm 0.00 in0.0 mm
06:50 AM 64.7°F18.2°C 59.1°F15.1°C 82% Calm Calm -- 29.94 in1013.9 mb - 0.00 in0.0 mm 0.00 in0.0 mm
06:40 AM 64.6°F18.1°C 59.0°F15.0°C 82% Calm Calm -- 29.94 in1013.9 mb - 0.00 in0.0 mm 0.00 in0.0 mm
06:30 AM 64.5°F18.1°C 58.9°F14.9°C 82% 2.3 mph NE3.7 kmh NE 2.3 mph3.7 kmh 29.93 in1013.5 mb - 0.00 in0.0 mm 0.00 in0.0 mm
06:20 AM 64.3°F17.9°C 58.7°F14.8°C 82% 2.3 mph NW3.7 kmh NW 3.5 mph5.6 kmh 29.93 in1013.5 mb - 0.00 in0.0 mm 0.00 in0.0 mm
06:10 AM 64.5°F18.1°C 59.2°F15.1°C 83% 4.6 mph N7.4 kmh N 5.8 mph9.3 kmh 29.93 in1013.5 mb - 0.00 in0.0 mm 0.00 in0.0 mm
06:00 AM 64.1°F17.8°C 58.8°F14.9°C 83% 6.9 mph NNW11.1 kmh NNW 9.2 mph14.8 kmh 29.93 in1013.5 mb - 0.00 in0.0 mm 0.00 in0.0 mm
05:50 AM 64.3°F17.9°C 59.4°F15.2°C 84% 5.8 mph NNW9.3 kmh NNW 8.1 mph13.0 kmh 29.93 in1013.5 mb - 0.00 in0.0 mm 0.00 in0.0 mm
05:40 AM 64.3°F17.9°C 59.7°F15.4°C 85% 8.1 mph NW13.0 kmh NW 8.1 mph13.0 kmh 29.93 in1013.5 mb - 0.00 in0.0 mm 0.00 in0.0 mm
05:30 AM 64.6°F18.1°C 60.0°F15.6°C 85% 8.1 mph NW13.0 kmh NW 10.4 mph16.7 kmh 29.93 in1013.5 mb - 0.00 in0.0 mm 0.00 in0.0 mm
05:20 AM 64.8°F18.2°C 59.8°F15.4°C 84% 9.2 mph WNW14.8 kmh WNW 13.8 mph22.2 kmh 29.94 in1013.9 mb - 0.00 in0.0 mm 0.00 in0.0 mm
05:10 AM 64.9°F18.3°C 59.6°F15.3°C 83% 8.1 mph NW13.0 kmh NW 11.5 mph18.5 kmh 29.94 in1013.9 mb - 0.00 in0.0 mm 0.00 in0.0 mm
05:00 AM 65.2°F18.4°C 59.9°F15.5°C 83% 8.1 mph NW13.0 kmh NW 10.4 mph16.7 kmh 29.94 in1013.9 mb - 0.00 in0.0 mm 0.00 in0.0 mm
04:50 AM 65.9°F18.8°C 59.9°F15.5°C 81% 3.5 mph N5.6 kmh N 4.6 mph7.4 kmh 29.93 in1013.5 mb - 0.00 in0.0 mm 0.00 in0.0 mm
04:40 AM 66.0°F18.9°C 59.6°F15.3°C 80% 2.3 mph NNW3.7 kmh NNW 4.6 mph7.4 kmh 29.93 in1013.5 mb - 0.00 in0.0 mm 0.00 in0.0 mm
04:30 AM 66.1°F18.9°C 59.4°F15.2°C 79% 2.3 mph NW3.7 kmh NW 1.2 mph1.9 kmh 29.93 in1013.5 mb - 0.00 in0.0 mm 0.00 in0.0 mm
04:20 AM 66.3°F19.1°C 59.2°F15.1°C 78% Calm Calm -- 29.93 in1013.5 mb - 0.00 in0.0 mm 0.00 in0.0 mm
04:10 AM 66.2°F19.0°C 58.7°F14.8°C 77% Calm Calm -- 29.93 in1013.5 mb - 0.00 in0.0 mm 0.00 in0.0 mm
04:00 AM 66.2°F19.0°C 59.2°F15.1°C 78% 5.8 mph NW9.3 kmh NW 9.2 mph14.8 kmh 29.93 in1013.5 mb - 0.00 in0.0 mm 0.00 in0.0 mm
03:50 AM 66.4°F19.1°C 58.6°F14.8°C 76% 3.5 mph WNW5.6 kmh WNW 4.6 mph7.4 kmh 29.93 in1013.5 mb - 0.00 in0.0 mm 0.00 in0.0 mm
03:40 AM 66.0°F18.9°C 56.3°F13.5°C 71% Calm Calm -- 29.92 in1013.2 mb - 0.00 in0.0 mm 0.00 in0.0 mm
03:30 AM 65.2°F18.4°C 55.2°F12.9°C 70% Calm Calm -- 29.92 in1013.2 mb - 0.00 in0.0 mm 0.00 in0.0 mm
03:20 AM 65.2°F18.4°C 54.0°F12.2°C 67% 1.2 mph ENE1.9 kmh ENE 1.2 mph1.9 kmh 29.90 in1012.5 mb - 0.00 in0.0 mm 0.00 in0.0 mm
03:10 AM 65.6°F18.7°C 53.9°F12.2°C 66% 2.3 mph NE3.7 kmh NE 2.3 mph3.7 kmh 29.90 in1012.5 mb - 0.00 in0.0 mm 0.00 in0.0 mm
03:00 AM 65.9°F18.8°C 53.8°F12.1°C 65% 2.3 mph NE3.7 kmh NE 3.5 mph5.6 kmh 29.89 in1012.2 mb - 0.00 in0.0 mm 0.00 in0.0 mm
02:50 AM 66.5°F19.2°C 53.9°F12.2°C 64% 3.5 mph E5.6 kmh E 3.5 mph5.6 kmh 29.89 in1012.2 mb - 0.00 in0.0 mm 0.00 in0.0 mm
02:40 AM 67.3°F19.6°C 52.9°F11.6°C 60% 3.5 mph N5.6 kmh N 4.6 mph7.4 kmh 29.88 in1011.9 mb - 0.00 in0.0 mm 0.00 in0.0 mm
02:30 AM 67.5°F19.7°C 53.1°F11.7°C 60% Calm Calm -- 29.89 in1012.2 mb - 0.00 in0.0 mm 0.00 in0.0 mm
02:20 AM 67.5°F19.7°C 53.1°F11.7°C 60% 1.2 mph E1.9 kmh E 2.3 mph3.7 kmh 29.89 in1012.2 mb - 0.00 in0.0 mm 0.00 in0.0 mm
02:10 AM 67.7°F19.8°C 53.3°F11.8°C 60% Calm Calm -- 29.89 in1012.2 mb - 0.00 in0.0 mm 0.00 in0.0 mm
02:00 AM 67.2°F19.6°C 52.4°F11.3°C 59% 5.8 mph SSW9.3 kmh SSW 6.9 mph11.1 kmh 29.89 in1012.2 mb - 0.00 in0.0 mm 0.00 in0.0 mm
01:50 AM 66.2°F19.0°C 53.7°F12.1°C 64% Calm Calm -- 29.89 in1012.2 mb - 0.00 in0.0 mm 0.00 in0.0 mm
01:40 AM 67.1°F19.5°C 53.2°F11.8°C 61% 4.6 mph SE7.4 kmh SE 6.9 mph11.1 kmh 29.89 in1012.2 mb - 0.00 in0.0 mm 0.00 in0.0 mm
01:30 AM 66.2°F19.0°C 53.2°F11.8°C 63% 6.9 mph S11.1 kmh S 9.2 mph14.8 kmh 29.90 in1012.5 mb - 0.00 in0.0 mm 0.00 in0.0 mm
01:10 AM 66.1°F18.9°C 53.1°F11.7°C 63% 3.5 mph SE5.6 kmh SE 5.8 mph9.3 kmh 29.89 in1012.2 mb - 0.00 in0.0 mm 0.00 in0.0 mm
01:00 AM 67.1°F19.5°C 53.2°F11.8°C 61% Calm Calm -- 29.89 in1012.2 mb - 0.00 in0.0 mm 0.00 in0.0 mm
12:50 AM 67.3°F19.6°C 52.9°F11.6°C 60% 1.2 mph E1.9 kmh E -- 29.89 in1012.2 mb - 0.00 in0.0 mm 0.00 in0.0 mm
12:40 AM 66.9°F19.4°C 52.6°F11.4°C 60% 5.8 mph SSW9.3 kmh SSW 8.1 mph13.0 kmh 29.90 in1012.5 mb - 0.00 in0.0 mm 0.00 in0.0 mm
12:30 AM 67.1°F19.5°C 52.8°F11.6°C 60% 4.6 mph S7.4 kmh S 8.1 mph13.0 kmh 29.91 in1012.9 mb - 0.00 in0.0 mm 0.00 in0.0 mm
12:20 AM 67.2°F19.6°C 53.7°F12.1°C 62% 1.2 mph SSW1.9 kmh SSW 5.8 mph9.3 kmh 29.91 in1012.9 mb - 0.00 in0.0 mm 0.00 in0.0 mm
12:10 AM 67.4°F19.7°C 53.1°F11.7°C 60% 4.6 mph S7.4 kmh S 8.1 mph13.0 kmh 29.90 in1012.5 mb - 0.00 in0.0 mm 0.00 in0.0 mm
12:00 AM 67.5°F19.7°C 52.7°F11.5°C 59% 5.8 mph S9.3 kmh S 6.9 mph11.1 kmh 29.91 in1012.9 mb - 0.00 in0.0 mm 0.00 in0.0 mm